Time;durP1;ratioP1;P1;durP2;ratioP2;P2;SDS_P1;SDS_P2;PMS_P1;PMS_P2;Temp;Humidity;BMP_temperature;BMP_pressure;BME280_temperature;BME280_humidity;BME280_pressure;Samples;Min_cycle;Max_cycle;Signal;HPM_P1;HPM_P2
2023/09/21 00:01:30;;;;;;;2.83;2.13;;;13.40;99.90;;;;;;10362509;28;20745;-93
2023/09/21 00:06:33;;;;;;;4.38;3.78;;;13.60;99.90;;;;;;10379780;28;20263;-94
2023/09/21 00:11:36;;;;;;;6.80;5.05;;;13.90;99.90;;;;;;10362176;28;20285;-93
2023/09/21 00:16:40;;;;;;;4.70;4.15;;;13.80;99.90;;;;;;10379191;28;20286;-93
2023/09/21 00:21:43;;;;;;;4.40;3.70;;;13.70;99.90;;;;;;10346191;28;20266;-92
2023/09/21 00:26:50;;;;;;;2.60;2.40;;;13.80;99.90;;;;;;10361909;28;20239;-93
2023/09/21 00:31:53;;;;;;;7.75;5.82;;;13.80;99.90;;;;;;10379441;28;20606;-94
2023/09/21 00:36:57;;;;;;;5.53;4.25;;;14.00;99.90;;;;;;10359563;28;20294;-93
2023/09/21 00:41:59;;;;;;;7.32;5.00;;;14.00;99.90;;;;;;10373132;28;20611;-93
2023/09/21 00:47:03;;;;;;;7.68;6.03;;;13.80;99.90;;;;;;10354987;28;20625;-93
2023/09/21 00:52:11;;;;;;;6.30;4.82;;;13.90;99.90;;;;;;10355432;28;20208;-92
2023/09/21 00:57:14;;;;;;;9.93;4.85;;;13.70;99.90;;;;;;10354324;28;20236;-95
2023/09/21 01:02:18;;;;;;;8.02;5.50;;;13.80;99.90;;;;;;10372319;28;20235;-93
2023/09/21 01:07:22;;;;;;;5.70;4.97;;;13.70;99.90;;;;;;10321754;28;20645;-95
2023/09/21 01:12:27;;;;;;;6.95;5.00;;;13.60;99.90;;;;;;10290271;28;20272;-93
2023/09/21 01:17:30;;;;;;;8.27;5.50;;;13.40;99.90;;;;;;10304992;28;20245;-93
2023/09/21 01:22:32;;;;;;;5.82;3.60;;;13.50;99.90;;;;;;10290186;28;20233;-93
2023/09/21 01:27:38;;;;;;;3.55;2.78;;;13.60;99.90;;;;;;10289237;28;20241;-93
2023/09/21 01:32:41;;;;;;;5.80;4.60;;;13.90;99.90;;;;;;10288956;28;20295;-94
2023/09/21 01:37:45;;;;;;;5.50;4.15;;;14.20;99.90;;;;;;10312331;28;20233;-92
2023/09/21 01:42:48;;;;;;;6.72;5.35;;;13.90;99.90;;;;;;10320219;28;20260;-92
2023/09/21 01:47:51;;;;;;;8.70;5.78;;;13.70;99.90;;;;;;10304304;28;20202;-92
2023/09/21 01:52:55;;;;;;;7.72;6.00;;;13.40;99.90;;;;;;10287863;28;20315;-93
2023/09/21 01:57:57;;;;;;;4.47;4.07;;;13.20;99.90;;;;;;10290497;28;20279;-93
2023/09/21 02:03:03;;;;;;;6.60;4.72;;;13.30;99.90;;;;;;10328159;28;20244;-93
2023/09/21 02:08:08;;;;;;;11.68;5.97;;;13.40;99.90;;;;;;10328722;28;20260;-93
2023/09/21 02:13:10;;;;;;;9.02;6.30;;;13.50;99.90;;;;;;10329125;28;20261;-93
2023/09/21 02:18:13;;;;;;;10.68;6.50;;;13.40;99.90;;;;;;10311054;28;20232;-92
2023/09/21 02:23:17;;;;;;;8.13;6.40;;;13.20;99.90;;;;;;10328105;28;20240;-93
2023/09/21 02:28:19;;;;;;;9.48;6.18;;;13.30;99.90;;;;;;10327075;28;20240;-93
2023/09/21 02:33:23;;;;;;;10.27;6.30;;;13.40;99.90;;;;;;10326764;28;20265;-93
2023/09/21 02:38:26;;;;;;;6.53;5.90;;;13.60;99.90;;;;;;10322723;28;20260;-93
2023/09/21 02:43:29;;;;;;;5.88;5.20;;;13.70;99.90;;;;;;10303139;28;20237;-94
2023/09/21 02:48:34;;;;;;;8.90;6.72;;;13.80;99.90;;;;;;10301981;28;20221;-94
2023/09/21 02:53:37;;;;;;;7.75;6.47;;;13.80;99.90;;;;;;10302297;28;20484;-93
2023/09/21 02:58:43;;;;;;;7.47;5.88;;;13.90;99.90;;;;;;10285851;28;20241;-92
2023/09/21 03:03:46;;;;;;;7.13;4.63;;;13.90;99.90;;;;;;10285389;28;20245;-92
2023/09/21 03:08:48;;;;;;;8.23;5.90;;;14.20;99.90;;;;;;10324762;28;20350;-94
2023/09/21 03:13:51;;;;;;;6.82;4.88;;;14.30;99.90;;;;;;10309512;28;20264;-93
2023/09/21 03:18:53;;;;;;;12.13;5.82;;;14.40;99.90;;;;;;10309024;28;20623;-93
2023/09/21 03:23:56;;;;;;;6.80;6.10;;;14.50;99.90;;;;;;10309538;28;20263;-93
2023/09/21 03:28:59;;;;;;;8.93;5.95;;;14.50;99.90;;;;;;10309330;28;20213;-93
2023/09/21 03:34:02;;;;;;;5.32;4.85;;;14.50;99.90;;;;;;10308761;28;20228;-93
2023/09/21 03:39:11;;;;;;;11.82;8.63;;;14.50;99.90;;;;;;10293169;28;20236;-92
2023/09/21 03:44:14;;;;;;;9.60;7.18;;;14.30;99.90;;;;;;10292976;28;20583;-94
2023/09/21 03:49:18;;;;;;;8.60;6.10;;;14.20;99.90;;;;;;10309531;28;20230;-93
2023/09/21 03:54:21;;;;;;;8.13;6.75;;;14.20;99.90;;;;;;10333064;28;20294;-93
2023/09/21 03:59:24;;;;;;;9.88;7.65;;;14.10;99.90;;;;;;10349226;28;20208;-94
2023/09/21 04:04:27;;;;;;;5.65;4.47;;;14.10;99.90;;;;;;10336611;28;20654;-94
2023/09/21 04:09:31;;;;;;;9.52;7.20;;;14.00;99.90;;;;;;10333629;28;20212;-94
2023/09/21 04:14:34;;;;;;;4.60;3.92;;;14.00;99.90;;;;;;10354210;28;20296;-93
2023/09/21 04:19:37;;;;;;;11.00;6.97;;;14.00;99.90;;;;;;10356601;28;20243;-94
2023/09/21 04:24:40;;;;;;;8.43;6.88;;;13.80;99.90;;;;;;10339148;28;20578;-93
2023/09/21 04:29:44;;;;;;;11.13;7.35;;;13.80;99.90;;;;;;10356656;28;20208;-93
2023/09/21 04:34:47;;;;;;;11.48;6.82;;;13.80;99.90;;;;;;10356244;28;20279;-92
2023/09/21 04:39:50;;;;;;;11.55;6.55;;;13.60;99.90;;;;;;10338800;28;20204;-92
2023/09/21 04:44:55;;;;;;;10.13;6.82;;;13.80;99.90;;;;;;10354097;28;20294;-93
2023/09/21 04:49:59;;;;;;;15.27;5.68;;;13.80;99.90;;;;;;10339527;28;20313;-93
2023/09/21 04:55:08;;;;;;;7.47;4.82;;;14.00;99.90;;;;;;10355375;28;20283;-93
2023/09/21 05:00:13;;;;;;;11.30;7.22;;;13.80;99.90;;;;;;10332447;28;20220;-91
2023/09/21 05:05:17;;;;;;;10.65;6.65;;;13.80;99.90;;;;;;10331508;28;20836;-94
2023/09/21 05:10:20;;;;;;;9.25;7.00;;;13.80;99.90;;;;;;10351325;28;20266;-93
2023/09/21 05:15:27;;;;;;;14.18;10.20;;;13.80;99.90;;;;;;10354076;28;20653;-92
2023/09/21 05:20:30;;;;;;;18.80;12.48;;;14.10;99.90;;;;;;10371409;28;20228;-93
2023/09/21 05:25:34;;;;;;;16.75;10.10;;;14.40;99.90;;;;;;10370258;28;20290;-92
2023/09/21 05:30:37;;;;;;;9.88;6.75;;;14.40;99.90;;;;;;10351653;28;20266;-93
2023/09/21 05:35:40;;;;;;;6.15;4.88;;;14.50;99.90;;;;;;10337621;28;20260;-93
2023/09/21 05:40:42;;;;;;;13.95;7.82;;;14.60;99.90;;;;;;10337286;28;20722;-93
2023/09/21 05:45:45;;;;;;;11.10;6.90;;;14.70;99.90;;;;;;10343115;28;20284;-92
2023/09/21 05:50:47;;;;;;;7.28;4.95;;;14.90;99.90;;;;;;10312737;28;20213;-93
2023/09/21 05:55:51;;;;;;;5.18;4.70;;;15.10;99.90;;;;;;10312293;28;20264;-93
2023/09/21 06:00:53;;;;;;;7.07;6.18;;;15.30;99.90;;;;;;10353361;28;20290;-93
2023/09/21 06:05:56;;;;;;;6.88;5.93;;;15.60;99.90;;;;;;10346113;28;20345;-91
2023/09/21 06:11:02;;;;;;;3.88;3.55;;;15.80;99.90;;;;;;10342811;28;20686;-93
2023/09/21 06:16:05;;;;;;;5.22;3.47;;;15.90;99.90;;;;;;10333716;28;20265;-92
2023/09/21 06:21:07;;;;;;;4.00;3.63;;;16.10;99.90;;;;;;10368271;28;20228;-92
2023/09/21 06:26:16;;;;;;;3.70;3.03;;;16.30;99.90;;;;;;10333281;28;20228;-92
2023/09/21 06:31:21;;;;;;;4.95;4.45;;;16.50;99.90;;;;;;10335429;28;20239;-89
2023/09/21 06:36:27;;;;;;;7.78;6.90;;;16.70;99.90;;;;;;10351109;28;20256;-90
2023/09/21 06:41:30;;;;;;;18.33;6.80;;;16.80;99.90;;;;;;10365174;28;20278;-84
2023/09/21 06:46:34;;;;;;;6.57;4.20;;;17.00;99.90;;;;;;10349206;28;20321;-84
2023/09/21 06:51:37;;;;;;;8.00;6.28;;;17.30;99.90;;;;;;10368134;28;20282;-85
2023/09/21 06:56:39;;;;;;;12.25;5.18;;;17.50;99.90;;;;;;10359775;28;20255;-87
2023/09/21 07:01:42;;;;;;;5.70;4.13;;;17.70;99.90;;;;;;10345429;28;20270;-87
2023/09/21 07:06:46;;;;;;;17.23;5.43;;;18.00;99.90;;;;;;10349769;28;20260;-87
2023/09/21 07:11:49;;;;;;;7.65;5.05;;;18.30;99.90;;;;;;10358642;28;20255;-88
2023/09/21 07:16:52;;;;;;;7.93;4.93;;;18.60;99.90;;;;;;10346223;28;20239;-87
2023/09/21 07:21:55;;;;;;;3.58;3.10;;;18.90;99.90;;;;;;10348169;28;20224;-87
2023/09/21 07:26:57;;;;;;;6.15;5.20;;;19.10;99.90;;;;;;10336675;28;20275;-87
2023/09/21 07:32:00;;;;;;;6.00;3.72;;;19.30;99.90;;;;;;10348972;28;20640;-87
2023/09/21 07:37:03;;;;;;;5.18;3.78;;;19.50;99.90;;;;;;10338603;28;21071;-87
2023/09/21 07:42:06;;;;;;;8.50;4.88;;;19.80;99.90;;;;;;10348166;28;20243;-87
2023/09/21 07:47:09;;;;;;;6.45;3.40;;;19.90;99.90;;;;;;10348499;28;20290;-87
2023/09/21 07:52:11;;;;;;;5.43;4.00;;;20.20;98.60;;;;;;10372268;28;20258;-87
2023/09/21 07:57:16;;;;;;;7.65;3.95;;;20.50;98.10;;;;;;10365367;28;20260;-87
2023/09/21 08:02:19;;;;;;;4.53;3.10;;;20.80;97.20;;;;;;10368893;28;20697;-87
2023/09/21 08:07:26;;;;;;;3.90;3.33;;;21.10;96.20;;;;;;10358363;28;20625;-87
2023/09/21 08:12:30;;;;;;;7.05;4.07;;;21.30;95.60;;;;;;10334642;28;20239;-87
2023/09/21 08:17:34;;;;;;;5.05;3.60;;;21.60;94.80;;;;;;10346556;28;20244;-87
2023/09/21 08:22:37;;;;;;;7.38;3.97;;;21.70;94.90;;;;;;10343621;28;20227;-87
2023/09/21 08:27:40;;;;;;;7.78;3.38;;;21.90;94.30;;;;;;10343292;28;20925;-87
2023/09/21 08:32:43;;;;;;;4.18;3.22;;;22.00;94.40;;;;;;10360179;28;20231;-87
2023/09/21 08:37:47;;;;;;;7.32;3.40;;;22.20;93.50;;;;;;10352299;28;20302;-84
2023/09/21 08:42:53;;;;;;;8.88;4.07;;;22.40;92.80;;;;;;10371830;28;20666;-84
2023/09/21 08:47:56;;;;;;;4.03;3.08;;;22.60;91.80;;;;;;10372727;28;20332;-84
2023/09/21 08:53:02;;;;;;;4.93;2.83;;;22.80;91.50;;;;;;10372434;28;20617;-84
2023/09/21 08:58:07;;;;;;;9.15;3.88;;;23.00;91.60;;;;;;10354291;28;20718;-84
2023/09/21 09:03:10;;;;;;;10.95;4.10;;;23.10;93.00;;;;;;10371071;28;20624;-84
2023/09/21 09:08:13;;;;;;;5.60;3.17;;;23.20;90.60;;;;;;10371481;28;20268;-84
2023/09/21 09:13:15;;;;;;;4.00;2.70;;;23.40;89.30;;;;;;10371439;28;20270;-84
2023/09/21 09:18:19;;;;;;;8.43;3.30;;;23.50;86.70;;;;;;10370778;28;20336;-84
2023/09/21 09:23:22;;;;;;;6.55;3.25;;;23.70;87.40;;;;;;10370279;28;20290;-84
2023/09/21 09:28:24;;;;;;;6.53;3.33;;;23.90;86.00;;;;;;10371280;28;20278;-85
2023/09/21 09:33:27;;;;;;;7.57;3.60;;;24.00;85.80;;;;;;10353196;28;20623;-84
2023/09/21 09:38:33;;;;;;;4.72;2.65;;;24.20;84.30;;;;;;10346357;28;20255;-85
2023/09/21 09:43:38;;;;;;;3.38;2.83;;;24.10;81.10;;;;;;10329931;28;20284;-84
2023/09/21 09:48:40;;;;;;;6.13;2.50;;;24.20;81.10;;;;;;10329753;28;20236;-85
2023/09/21 09:53:46;;;;;;;4.88;2.55;;;24.20;80.10;;;;;;10311575;28;20244;-84
2023/09/21 09:58:52;;;;;;;6.15;3.42;;;24.20;77.90;;;;;;10329038;28;20256;-85
2023/09/21 10:03:55;;;;;;;3.22;2.63;;;24.30;78.70;;;;;;10329032;28;20275;-85
2023/09/21 10:08:57;;;;;;;12.48;3.15;;;24.30;77.30;;;;;;10310712;28;20314;-85
2023/09/21 10:14:00;;;;;;;7.30;3.00;;;24.30;76.00;;;;;;10310314;28;20311;-85
2023/09/21 10:19:03;;;;;;;7.00;3.40;;;24.40;75.30;;;;;;10327856;28;20315;-85
2023/09/21 10:24:18;;;;;;;7.15;3.33;;;24.50;78.50;;;;;;10356600;28;20236;-88
2023/09/21 10:29:32;;;;;;;4.35;2.65;;;24.60;75.90;;;;;;10366193;28;20227;-87
2023/09/21 10:34:45;;;;;;;8.68;3.00;;;24.60;74.40;;;;;;10356209;28;20270;-88
2023/09/21 10:39:59;;;;;;;8.52;3.13;;;24.70;73.90;;;;;;10325595;28;20621;-88
2023/09/21 10:45:04;;;;;;;6.22;3.13;;;24.80;74.40;;;;;;10325147;28;20248;-88
2023/09/21 10:50:12;;;;;;;5.18;2.75;;;24.80;74.10;;;;;;10309655;28;20354;-87
2023/09/21 10:55:16;;;;;;;8.38;3.45;;;24.90;74.80;;;;;;10329135;28;20260;-88
2023/09/21 11:00:21;;;;;;;4.47;2.28;;;25.00;74.20;;;;;;10356395;28;20624;-88
2023/09/21 11:05:26;;;;;;;10.80;2.75;;;25.10;73.40;;;;;;10347769;28;20966;-88
2023/09/21 11:10:31;;;;;;;9.15;2.83;;;25.10;72.70;;;;;;10347276;28;20766;-86
2023/09/21 11:15:34;;;;;;;10.70;3.20;;;25.10;69.90;;;;;;10365411;28;20310;-88
2023/09/21 11:20:40;;;;;;;5.53;2.72;;;25.20;72.10;;;;;;10325568;28;20280;-88
2023/09/21 11:25:43;;;;;;;7.88;2.97;;;25.20;72.40;;;;;;10330322;28;20244;-87
2023/09/21 11:30:46;;;;;;;8.18;3.10;;;25.20;69.90;;;;;;10352532;28;20224;-84
2023/09/21 11:35:51;;;;;;;13.43;4.07;;;25.30;66.80;;;;;;10349060;28;20256;-85
2023/09/21 11:40:53;;;;;;;6.78;2.72;;;25.30;63.30;;;;;;10350424;28;20231;-84
2023/09/21 11:46:02;;;;;;;4.90;2.78;;;25.40;61.00;;;;;;10334032;28;20258;-85
2023/09/21 11:51:07;;;;;;;4.90;2.38;;;25.40;64.50;;;;;;10349728;28;20703;-85
2023/09/21 11:56:09;;;;;;;7.22;3.00;;;25.40;63.60;;;;;;10367124;28;20263;-84
2023/09/21 12:01:19;;;;;;;6.40;2.60;;;25.30;61.40;;;;;;10348818;28;20695;-84
2023/09/21 12:06:32;;;;;;;6.32;2.60;;;25.40;61.30;;;;;;10349232;28;20312;-84
2023/09/21 12:11:34;;;;;;;9.27;3.10;;;25.40;60.60;;;;;;10358076;28;20236;-82
2023/09/21 12:16:40;;;;;;;5.20;3.00;;;25.40;59.10;;;;;;10356385;28;20259;-86
2023/09/21 12:21:43;;;;;;;4.50;2.45;;;25.50;59.80;;;;;;10343514;28;20228;-87
2023/09/21 12:26:46;;;;;;;5.22;2.80;;;25.40;61.10;;;;;;10365735;28;20267;-86
2023/09/21 12:31:48;;;;;;;4.05;2.03;;;25.50;58.50;;;;;;10365469;28;20640;-87
2023/09/21 12:36:59;;;;;;;4.38;2.03;;;25.50;58.30;;;;;;10371203;28;20661;-86
2023/09/21 12:42:03;;;;;;;3.70;2.03;;;25.50;57.90;;;;;;10372001;28;20275;-86
2023/09/21 12:47:09;;;;;;;6.18;2.60;;;25.50;62.10;;;;;;10355124;28;20220;-86
2023/09/21 12:52:12;;;;;;;5.40;3.03;;;25.60;58.90;;;;;;10373185;28;20266;-87
2023/09/21 12:57:15;;;;;;;2.75;2.17;;;25.70;56.10;;;;;;10345652;28;20797;-86
2023/09/21 13:02:19;;;;;;;6.13;2.58;;;25.70;62.50;;;;;;10357099;28;20282;-86
2023/09/21 13:07:24;;;;;;;4.88;2.22;;;25.60;58.60;;;;;;10354654;28;20290;-87
2023/09/21 13:12:27;;;;;;;6.13;2.75;;;25.70;60.70;;;;;;10367843;28;20236;-87
2023/09/21 13:17:31;;;;;;;4.85;2.22;;;25.80;55.40;;;;;;10335606;28;20274;-87
2023/09/21 13:22:34;;;;;;;2.65;1.95;;;25.80;61.30;;;;;;10352853;28;20228;-87
2023/09/21 13:27:38;;;;;;;4.80;3.47;;;25.80;57.10;;;;;;10345130;28;20283;-87
2023/09/21 13:32:40;;;;;;;2.35;2.15;;;25.90;53.60;;;;;;10328431;28;20243;-87
2023/09/21 13:37:43;;;;;;;6.03;3.17;;;25.90;57.30;;;;;;10329273;28;20252;-87
2023/09/21 13:42:46;;;;;;;3.88;2.33;;;26.00;53.90;;;;;;10329025;28;20240;-87
2023/09/21 13:47:48;;;;;;;8.40;3.17;;;25.90;61.00;;;;;;10311492;28;20267;-87
2023/09/21 13:52:51;;;;;;;9.82;4.32;;;25.90;59.80;;;;;;10346682;28;20622;-87
2023/09/21 13:57:54;;;;;;;2.38;1.77;;;26.00;57.10;;;;;;10328719;28;20319;-87
2023/09/21 14:02:57;;;;;;;5.82;2.55;;;26.00;64.00;;;;;;10338690;28;20702;-86
2023/09/21 14:08:00;;;;;;;2.78;2.10;;;26.00;63.90;;;;;;10352014;28;20267;-86
2023/09/21 14:13:03;;;;;;;6.40;2.75;;;26.10;63.10;;;;;;10367850;28;20680;-86
2023/09/21 14:18:06;;;;;;;7.00;3.08;;;26.10;60.30;;;;;;10328701;28;20330;-86
2023/09/21 14:23:08;;;;;;;2.17;1.98;;;26.00;62.20;;;;;;10354094;28;20766;-86
2023/09/21 14:28:11;;;;;;;3.50;2.05;;;26.00;63.20;;;;;;10356121;28;20228;-86
2023/09/21 14:33:14;;;;;;;4.43;2.88;;;26.00;60.80;;;;;;10341340;28;20698;-86
2023/09/21 14:38:18;;;;;;;6.75;3.38;;;26.00;59.70;;;;;;10366571;28;20263;-86
2023/09/21 14:43:20;;;;;;;10.48;3.72;;;26.00;59.90;;;;;;10349620;28;20328;-86
2023/09/21 14:48:24;;;;;;;3.45;2.20;;;26.00;58.70;;;;;;10338727;28;20304;-86
2023/09/21 14:53:26;;;;;;;2.33;2.10;;;26.00;63.10;;;;;;10366247;28;20235;-86
2023/09/21 14:58:31;;;;;;;8.10;2.17;;;26.00;63.40;;;;;;10355455;28;20307;-86
2023/09/21 15:03:35;;;;;;;2.45;1.77;;;26.00;63.10;;;;;;10350118;28;20269;-86
2023/09/21 15:08:38;;;;;;;8.13;3.50;;;26.00;63.00;;;;;;10365767;28;20329;-87
2023/09/21 15:13:41;;;;;;;13.93;3.40;;;26.00;57.50;;;;;;10347841;28;20228;-85
2023/09/21 15:18:44;;;;;;;4.78;2.78;;;26.00;59.00;;;;;;10346725;28;20259;-86
2023/09/21 15:23:47;;;;;;;5.03;2.00;;;26.10;57.70;;;;;;10363503;28;20793;-86
2023/09/21 15:28:50;;;;;;;4.07;2.60;;;26.00;61.90;;;;;;10359447;28;20729;-86
2023/09/21 15:33:52;;;;;;;3.40;2.58;;;26.00;62.60;;;;;;10340457;28;20232;-85
2023/09/21 15:38:56;;;;;;;5.75;2.80;;;26.00;60.80;;;;;;10366162;28;20247;-85
2023/09/21 15:44:01;;;;;;;6.43;2.08;;;25.90;57.00;;;;;;10365304;28;20278;-85
2023/09/21 15:49:04;;;;;;;4.78;2.63;;;25.90;64.60;;;;;;10365096;28;20235;-86
2023/09/21 15:54:07;;;;;;;3.10;2.58;;;25.80;63.00;;;;;;10331183;28;20717;-86
2023/09/21 15:59:10;;;;;;;1.98;1.63;;;25.70;57.60;;;;;;10357531;28;20260;-86
2023/09/21 16:04:16;;;;;;;4.68;2.72;;;25.60;63.50;;;;;;10357637;28;20232;-85
2023/09/21 16:09:18;;;;;;;3.33;2.00;;;25.50;60.10;;;;;;10350533;28;20262;-86
2023/09/21 16:14:21;;;;;;;2.65;2.30;;;25.40;63.40;;;;;;10352582;28;20712;-87
2023/09/21 16:19:24;;;;;;;4.50;3.28;;;25.30;66.90;;;;;;10358450;28;20793;-86
2023/09/21 16:24:27;;;;;;;7.65;2.50;;;25.20;61.60;;;;;;10332368;28;20299;-86
2023/09/21 16:29:30;;;;;;;5.38;2.92;;;25.10;65.60;;;;;;10333462;28;20239;-86
2023/09/21 16:34:33;;;;;;;2.58;1.83;;;25.00;63.50;;;;;;10368249;28;20236;-86
2023/09/21 16:39:36;;;;;;;4.13;2.17;;;24.90;71.00;;;;;;10354243;28;20286;-86
2023/09/21 16:44:39;;;;;;;7.32;3.75;;;24.80;71.40;;;;;;10353875;28;20251;-85
2023/09/21 16:49:42;;;;;;;6.22;3.08;;;24.70;66.60;;;;;;10371398;28;20236;-86
2023/09/21 16:54:44;;;;;;;4.50;2.83;;;24.60;71.00;;;;;;10338386;28;20652;-86
2023/09/21 16:59:47;;;;;;;3.45;1.73;;;24.40;73.90;;;;;;10351520;28;20377;-86
2023/09/21 17:04:50;;;;;;;3.08;1.98;;;24.30;77.10;;;;;;10349378;28;20329;-86
2023/09/21 17:09:53;;;;;;;6.25;2.10;;;24.20;76.80;;;;;;10371176;28;20301;-86
2023/09/21 17:14:55;;;;;;;3.08;2.72;;;24.10;77.90;;;;;;10369992;28;20235;-85
2023/09/21 17:19:58;;;;;;;7.65;3.38;;;23.90;72.70;;;;;;10342328;28;20287;-84
2023/09/21 17:25:01;;;;;;;9.10;3.85;;;23.90;74.40;;;;;;10318446;28;20638;-85
2023/09/21 17:30:04;;;;;;;8.88;3.75;;;23.80;74.10;;;;;;10354686;28;20240;-86
2023/09/21 17:35:07;;;;;;;5.10;3.33;;;23.80;74.40;;;;;;10351248;28;20299;-87
2023/09/21 17:40:12;;;;;;;3.70;2.75;;;23.70;75.70;;;;;;10314337;28;20283;-87
2023/09/21 17:45:14;;;;;;;6.53;3.45;;;23.80;75.80;;;;;;10368475;28;20631;-87
2023/09/21 17:50:17;;;;;;;5.30;2.78;;;23.80;73.20;;;;;;10367928;28;20235;-85
2023/09/21 17:55:19;;;;;;;9.32;4.68;;;23.70;76.90;;;;;;10366585;28;20232;-86
2023/09/21 18:00:22;;;;;;;8.35;3.53;;;23.70;73.00;;;;;;10367657;28;20255;-86
2023/09/21 18:05:25;;;;;;;4.45;3.17;;;23.70;74.10;;;;;;10347552;28;20268;-86
2023/09/21 18:10:28;;;;;;;10.05;3.80;;;23.70;74.20;;;;;;10338553;28;20902;-86
2023/09/21 18:15:31;;;;;;;7.63;3.58;;;23.70;72.10;;;;;;10358456;28;20240;-86
2023/09/21 18:20:34;;;;;;;4.93;2.55;;;23.60;72.70;;;;;;10331993;28;20283;-86
2023/09/21 18:25:36;;;;;;;11.52;3.75;;;23.60;78.20;;;;;;10362527;28;20255;-86
2023/09/21 18:30:39;;;;;;;4.68;2.53;;;23.50;77.10;;;;;;10333361;28;20244;-86
2023/09/21 18:35:42;;;;;;;7.63;4.55;;;23.50;81.30;;;;;;10349602;28;20647;-86
2023/09/21 18:40:46;;;;;;;14.60;4.85;;;23.50;81.50;;;;;;10337847;28;20287;-86
2023/09/21 18:45:49;;;;;;;4.50;3.08;;;23.50;75.90;;;;;;10355958;28;20930;-86
2023/09/21 18:50:52;;;;;;;4.10;3.55;;;23.50;78.00;;;;;;10330641;28;20240;-86
2023/09/21 18:55:55;;;;;;;8.93;3.17;;;23.60;77.50;;;;;;10358103;28;20559;-86
2023/09/21 19:00:58;;;;;;;5.00;3.78;;;23.60;79.50;;;;;;10369161;28;20282;-86
2023/09/21 19:06:01;;;;;;;4.68;3.17;;;23.50;74.50;;;;;;10358482;28;20643;-86
2023/09/21 19:11:04;;;;;;;5.20;2.65;;;23.40;78.40;;;;;;10366033;28;20309;-86
2023/09/21 19:16:10;;;;;;;6.18;3.35;;;23.30;80.80;;;;;;10337023;28;20208;-86
2023/09/21 19:21:13;;;;;;;5.65;3.80;;;23.30;80.90;;;;;;10365445;28;20302;-86
2023/09/21 19:26:17;;;;;;;2.83;2.50;;;23.30;77.20;;;;;;10341452;28;20220;-85
2023/09/21 19:31:22;;;;;;;4.40;2.72;;;23.30;81.40;;;;;;10367184;28;20231;-86
2023/09/21 19:36:25;;;;;;;5.43;2.90;;;23.30;81.40;;;;;;10368787;28;20243;-85
2023/09/21 19:41:28;;;;;;;4.55;3.35;;;23.30;80.70;;;;;;10352478;28;20228;-86
2023/09/21 19:46:31;;;;;;;5.75;3.58;;;23.30;79.70;;;;;;10359732;28;20712;-85
2023/09/21 19:51:34;;;;;;;7.03;3.20;;;23.10;79.50;;;;;;10012256;28;10000072;-87
2023/09/21 19:56:37;;;;;;;4.88;3.00;;;23.00;81.80;;;;;;10354857;28;20232;-84
2023/09/21 20:01:40;;;;;;;9.32;3.80;;;22.80;83.00;;;;;;10384600;28;20233;-85
2023/09/21 20:06:42;;;;;;;3.58;2.88;;;22.60;80.00;;;;;;10347509;28;20209;-85
2023/09/21 20:11:45;;;;;;;2.58;2.35;;;22.40;86.60;;;;;;10362581;28;20219;-84
2023/09/21 20:16:47;;;;;;;8.82;3.40;;;22.30;88.90;;;;;;10397428;28;20197;-86
2023/09/21 20:21:53;;;;;;;7.88;3.45;;;22.10;85.40;;;;;;10363253;28;20224;-86
2023/09/21 20:26:56;;;;;;;6.00;2.67;;;22.10;89.00;;;;;;10381486;28;20205;-86
2023/09/21 20:32:03;;;;;;;5.97;3.75;;;21.90;91.20;;;;;;10373351;28;20315;-85
2023/09/21 20:37:06;;;;;;;4.30;2.75;;;21.80;91.00;;;;;;10420401;28;20208;-86
2023/09/21 20:42:09;;;;;;;6.97;3.63;;;21.60;92.20;;;;;;10418726;28;20280;-85
2023/09/21 20:47:12;;;;;;;8.07;4.55;;;21.40;91.90;;;;;;10420208;28;20212;-85
2023/09/21 20:52:15;;;;;;;3.50;3.08;;;21.40;93.10;;;;;;10376062;28;20196;-85
2023/09/21 20:57:18;;;;;;;3.45;2.55;;;21.40;93.80;;;;;;10417798;28;20727;-86
2023/09/21 21:02:21;;;;;;;3.95;3.28;;;21.30;94.20;;;;;;10378309;28;20213;-86
2023/09/21 21:07:24;;;;;;;8.35;3.80;;;21.20;93.10;;;;;;10367858;28;20251;-86
2023/09/21 21:12:26;;;;;;;4.15;3.05;;;21.10;91.60;;;;;;10351025;28;20595;-86
2023/09/21 21:17:29;;;;;;;4.60;3.22;;;21.10;94.10;;;;;;10364396;28;20305;-84
2023/09/21 21:22:32;;;;;;;9.18;5.32;;;21.00;93.20;;;;;;10381134;28;20176;-86
2023/09/21 21:27:35;;;;;;;3.28;2.88;;;21.00;92.30;;;;;;10390539;28;20235;-86
2023/09/21 21:32:37;;;;;;;6.80;3.20;;;21.00;93.20;;;;;;10364124;28;20209;-86
2023/09/21 21:37:41;;;;;;;7.38;4.57;;;20.90;93.10;;;;;;10363652;28;20247;-87
2023/09/21 21:42:43;;;;;;;5.97;4.85;;;20.80;92.80;;;;;;10328500;28;20205;-86
2023/09/21 21:47:46;;;;;;;8.30;4.78;;;20.70;91.20;;;;;;10345069;28;20196;-86
2023/09/21 21:52:49;;;;;;;5.13;3.83;;;20.40;91.30;;;;;;10378955;28;20205;-85
2023/09/21 21:57:52;;;;;;;5.05;3.42;;;20.50;94.50;;;;;;10394914;28;20228;-86
2023/09/21 22:02:56;;;;;;;4.32;3.60;;;20.70;93.20;;;;;;10406687;28;20235;-86
2023/09/21 22:08:01;;;;;;;5.40;3.85;;;20.90;94.90;;;;;;10424403;28;20247;-86
2023/09/21 22:13:05;;;;;;;5.38;4.78;;;21.10;93.30;;;;;;10422076;28;20197;-85
2023/09/21 22:18:09;;;;;;;4.53;3.70;;;21.30;91.50;;;;;;10382178;28;20209;-86
2023/09/21 22:23:12;;;;;;;5.50;4.47;;;21.30;92.60;;;;;;10385719;28;20228;-86
2023/09/21 22:28:14;;;;;;;6.05;4.55;;;21.40;91.70;;;;;;10389362;28;20177;-86
2023/09/21 22:33:17;;;;;;;3.90;3.35;;;21.20;91.30;;;;;;10425973;28;20228;-86
2023/09/21 22:38:20;;;;;;;5.45;4.10;;;21.30;93.70;;;;;;10426552;28;20219;-86
2023/09/21 22:43:23;;;;;;;5.75;4.63;;;21.30;91.00;;;;;;10426042;28;20195;-86
2023/09/21 22:48:25;;;;;;;7.75;4.65;;;21.20;91.50;;;;;;10409226;28;20211;-86
2023/09/21 22:53:28;;;;;;;3.53;3.20;;;21.30;91.40;;;;;;10408467;28;20185;-87
2023/09/21 22:58:31;;;;;;;7.63;4.70;;;21.20;93.10;;;;;;10384911;28;20232;-86
2023/09/21 23:03:34;;;;;;;4.63;4.18;;;21.30;90.80;;;;;;10328044;28;20213;-86
2023/09/21 23:08:38;;;;;;;5.97;4.57;;;21.30;92.00;;;;;;10333588;28;20225;-86
2023/09/21 23:13:41;;;;;;;3.90;3.13;;;21.20;91.30;;;;;;10333714;28;20251;-86
2023/09/21 23:18:44;;;;;;;4.97;3.88;;;21.20;93.00;;;;;;10361643;28;20220;-86
2023/09/21 23:23:47;;;;;;;6.13;3.13;;;21.20;92.00;;;;;;10372802;28;20204;-86
2023/09/21 23:28:50;;;;;;;5.25;3.42;;;21.10;92.70;;;;;;10342083;28;20232;-86
2023/09/21 23:33:53;;;;;;;5.68;3.78;;;21.00;92.20;;;;;;10332931;28;20208;-86
2023/09/21 23:38:58;;;;;;;4.10;3.60;;;21.10;91.90;;;;;;10343691;28;20232;-86
2023/09/21 23:44:00;;;;;;;4.38;3.75;;;21.00;93.30;;;;;;10353720;28;20197;-86
2023/09/21 23:49:04;;;;;;;3.60;3.30;;;21.00;93.30;;;;;;10332005;28;20231;-86
2023/09/21 23:54:07;;;;;;;3.67;3.08;;;21.10;94.00;;;;;;10331017;28;20565;-86
2023/09/21 23:59:10;;;;;;;4.32;3.50;;;21.10;92.10;;;;;;10313782;28;20271;-86
